createdAt,value
2022-12-23T00:04:11.960Z,98978.31
2022-12-23T00:09:15.318Z,98978.22
2022-12-23T00:14:36.381Z,98973.03
2022-12-23T00:19:41.079Z,98977.47
2022-12-23T00:24:44.369Z,98982.78
2022-12-23T00:29:47.635Z,98974.03
2022-12-23T00:34:52.361Z,98967.03
2022-12-23T00:40:12.980Z,98965.31
2022-12-23T00:45:19.381Z,98965.38
2022-12-23T00:50:25.472Z,98960.19
2022-12-23T00:55:29.215Z,98956.72
2022-12-23T01:00:49.973Z,98947.97
2022-12-23T01:05:59.082Z,98953.25
2022-12-23T01:11:04.478Z,98930.75
2022-12-23T01:16:14.994Z,98953.19
2022-12-23T01:21:22.374Z,98958.44
2022-12-23T01:26:25.998Z,98948.00
2022-12-23T01:31:29.895Z,98945.34
2022-12-23T01:36:34.724Z,98935.75
2022-12-23T01:41:55.189Z,98941.88
2022-12-23T01:46:58.471Z,98946.22
2022-12-23T01:52:03.556Z,98947.97
2022-12-23T01:57:07.259Z,98946.19
2022-12-23T02:02:28.112Z,98922.78
2022-12-23T02:07:50.770Z,98938.25
2022-12-23T02:13:02.858Z,98933.03
2022-12-23T02:18:28.903Z,98925.16
2022-12-23T02:24:10.597Z,98928.66
2022-12-23T02:29:36.170Z,98918.19
2022-12-23T02:34:47.903Z,98920.81
2022-12-23T02:39:56.220Z,98903.34
2022-12-23T02:45:04.124Z,98901.63
2022-12-23T02:50:16.616Z,98903.41
2022-12-23T02:55:24.287Z,98900.78
2022-12-23T03:00:27.973Z,98898.06
2022-12-23T03:05:39.470Z,98898.09
2022-12-23T03:10:56.747Z,98901.47
2022-12-23T03:16:11.287Z,98906.75
2022-12-23T03:21:23.739Z,98912.00
2022-12-23T03:26:32.478Z,98907.66
2022-12-23T03:31:40.818Z,98902.44
2022-12-23T03:36:49.841Z,98907.69
2022-12-23T03:41:58.245Z,98905.09
2022-12-23T03:47:08.609Z,98918.13
2022-12-23T03:52:21.565Z,98914.50
2022-12-23T03:57:29.681Z,98921.34
2022-12-23T04:02:40.204Z,98911.66
2022-12-23T04:07:49.232Z,98909.84
2022-12-23T04:12:53.628Z,98913.38
2022-12-23T04:17:58.258Z,98911.56
2022-12-23T04:23:02.860Z,98921.16
2022-12-23T04:28:06.444Z,98915.84
2022-12-23T04:33:11.841Z,98920.19
2022-12-23T04:38:16.423Z,98924.63
2022-12-23T04:43:19.655Z,98925.47
2022-12-23T04:48:23.037Z,98921.03
2022-12-23T04:53:27.919Z,98913.16
2022-12-23T04:58:31.163Z,98916.66
2022-12-23T05:03:35.047Z,98914.00
2022-12-23T05:08:41.030Z,98918.91
2022-12-23T05:13:44.347Z,98910.91
2022-12-23T05:18:47.669Z,98906.22
2022-12-23T05:23:52.286Z,98906.09
2022-12-23T05:28:56.156Z,98907.91
2022-12-23T05:34:05.688Z,98904.44
2022-12-23T05:39:12.221Z,98898.28
2022-12-23T05:44:15.496Z,98897.47
2022-12-23T05:49:18.914Z,98889.53
2022-12-23T05:54:23.597Z,98892.22
2022-12-23T05:59:30.900Z,98888.81
2022-12-23T06:04:35.008Z,98887.09
2022-12-23T06:09:39.755Z,98882.97
2022-12-23T06:14:43.133Z,98883.06
2022-12-23T06:19:47.506Z,98884.03
2022-12-23T06:24:52.412Z,98874.44
2022-12-23T06:29:56.280Z,98875.31
2022-12-23T06:35:00.015Z,98879.56
2022-12-23T06:40:05.338Z,98877.84
2022-12-23T06:45:09.821Z,98862.41
2022-12-23T06:50:13.274Z,98870.94
2022-12-23T06:55:18.333Z,98870.13
2022-12-23T07:00:22.120Z,98877.09
2022-12-23T07:05:25.576Z,98877.00
2022-12-23T07:10:30.252Z,98871.63
2022-12-23T07:15:34.114Z,98871.63
2022-12-23T07:20:37.314Z,98868.06
2022-12-23T07:25:42.271Z,98857.44
2022-12-23T07:30:45.453Z,98853.81
2022-12-23T07:35:48.599Z,98850.22
2022-12-23T07:40:53.292Z,98848.44
2022-12-23T07:46:00.284Z,98848.38
2022-12-23T07:51:04.969Z,98850.22
2022-12-23T07:56:10.037Z,98846.69
2022-12-23T08:01:13.318Z,98843.06
2022-12-23T08:06:17.853Z,98822.13
2022-12-23T08:11:22.465Z,98829.09
2022-12-23T08:16:25.764Z,98828.19
2022-12-23T08:21:28.981Z,98830.78
2022-12-23T08:26:34.178Z,98833.34
2022-12-23T08:31:37.617Z,98828.09
2022-12-23T08:36:41.165Z,98820.16
2022-12-23T08:41:47.975Z,98817.50
2022-12-23T08:46:51.732Z,98818.41
2022-12-23T08:51:55.277Z,98813.03
2022-12-23T08:57:00.020Z,98812.97
2022-12-23T09:02:03.946Z,98813.69
2022-12-23T09:07:07.409Z,98804.97
2022-12-23T09:12:12.037Z,98801.44
2022-12-23T09:17:15.329Z,98800.44
2022-12-23T09:22:18.520Z,98802.09
2022-12-23T09:27:23.217Z,98789.78
2022-12-23T09:32:26.420Z,98792.41
2022-12-23T09:37:29.630Z,98780.06
2022-12-23T09:42:49.358Z,98765.25
2022-12-23T09:47:56.120Z,98768.72
2022-12-23T09:53:03.202Z,98765.41
2022-12-23T09:58:16.439Z,98754.97
2022-12-23T10:03:26.629Z,98748.78
2022-12-23T10:08:34.575Z,98735.56
2022-12-23T10:13:43.706Z,98728.56
2022-12-23T10:18:53.791Z,98725.94
2022-12-23T10:23:57.282Z,98714.47
2022-12-23T10:29:12.813Z,98709.31
2022-12-23T10:34:23.853Z,98705.78
2022-12-23T10:39:38.750Z,98695.06
2022-12-23T10:45:15.744Z,98688.81
2022-12-23T10:50:46.409Z,98692.34
2022-12-23T10:55:51.681Z,98686.41
2022-12-23T11:00:59.417Z,98686.56
2022-12-23T11:06:03.411Z,98683.09
2022-12-23T11:11:08.221Z,98675.31
2022-12-23T11:16:23.327Z,98667.50
2022-12-23T11:21:27.634Z,98663.06
2022-12-23T11:26:30.965Z,98672.69
2022-12-23T11:31:36.893Z,98683.25
2022-12-23T11:36:40.445Z,98680.69
2022-12-23T11:41:47.808Z,98674.75
2022-12-23T11:46:52.809Z,98683.53
2022-12-23T11:52:13.877Z,98687.06
2022-12-23T11:57:20.433Z,98693.16
2022-12-23T12:02:37.158Z,98699.31
2022-12-23T12:07:43.507Z,98697.69
2022-12-23T12:12:52.795Z,98688.03
2022-12-23T12:18:00.371Z,98685.41
2022-12-23T12:23:10.406Z,98682.84
2022-12-23T12:28:16.510Z,98672.41
2022-12-23T12:33:24.753Z,98675.09
2022-12-23T12:38:32.515Z,98672.56
2022-12-23T12:43:39.100Z,98668.06
2022-12-23T12:48:49.801Z,98665.38
2022-12-23T12:54:05.488Z,98665.44
2022-12-23T12:59:16.518Z,98666.31
2022-12-23T13:04:58.112Z,98654.94
2022-12-23T13:10:08.159Z,98654.09
2022-12-23T13:15:21.451Z,98646.31
2022-12-23T13:20:37.689Z,98643.00
2022-12-23T13:25:46.031Z,98632.59
2022-12-23T13:30:57.530Z,98634.44
2022-12-23T13:36:14.630Z,98630.09
2022-12-23T13:41:26.934Z,98624.91
2022-12-23T13:46:42.089Z,98632.91
2022-12-23T13:51:55.565Z,98628.56
2022-12-23T13:57:08.640Z,98626.00
2022-12-23T14:02:26.699Z,98626.06
2022-12-23T14:07:34.758Z,98626.03
2022-12-23T14:12:40.964Z,98623.50
2022-12-23T14:17:53.383Z,98599.28
2022-12-23T14:23:09.569Z,98622.56
2022-12-23T14:28:27.421Z,98613.84
2022-12-23T14:33:35.713Z,98616.44
2022-12-23T14:38:40.644Z,98607.66
2022-12-23T14:43:59.521Z,98613.78
2022-12-23T14:49:38.836Z,98604.13
2022-12-23T14:55:06.063Z,98597.16
2022-12-23T15:00:11.211Z,98591.91
2022-12-23T15:05:15.180Z,98601.50
2022-12-23T15:10:24.824Z,98597.16
2022-12-23T15:15:30.885Z,98585.78
2022-12-23T15:20:35.387Z,98591.81
2022-12-23T15:25:44.769Z,98606.69
2022-12-23T15:30:50.792Z,98599.63
2022-12-23T15:35:54.644Z,98587.41
2022-12-23T15:41:01.703Z,98594.38
2022-12-23T15:46:10.145Z,98593.41
2022-12-23T15:51:21.953Z,98589.06
2022-12-23T15:56:42.486Z,98573.31
2022-12-23T16:01:45.930Z,98556.59
2022-12-23T16:06:51.814Z,98562.75
2022-12-23T16:11:59.827Z,98560.13
2022-12-23T16:17:19.689Z,98560.13
2022-12-23T16:22:38.602Z,98556.41
2022-12-23T16:27:47.551Z,98565.19
2022-12-23T16:32:54.611Z,98568.59
2022-12-23T16:38:16.159Z,98562.41
2022-12-23T16:43:21.792Z,98554.53
2022-12-23T16:48:30.894Z,98554.44
2022-12-23T16:53:34.507Z,98559.50
2022-12-23T16:58:39.161Z,98549.00
2022-12-23T17:03:42.616Z,98536.72
2022-12-23T17:08:45.969Z,98539.31
2022-12-23T17:13:51.003Z,98547.13
2022-12-23T17:18:54.877Z,98533.38
2022-12-23T17:24:05.746Z,98557.59
2022-12-23T17:29:13.589Z,98555.00
2022-12-23T17:34:19.025Z,98551.38
2022-12-23T17:39:23.522Z,98560.97
2022-12-23T17:44:28.636Z,98556.56
2022-12-23T17:49:31.925Z,98564.44
2022-12-23T17:54:35.281Z,98560.91
2022-12-23T17:59:40.033Z,98560.78
2022-12-23T18:04:43.530Z,98555.66
2022-12-23T18:09:47.254Z,98566.84
2022-12-23T18:14:51.929Z,98570.50
2022-12-23T18:19:55.185Z,98562.69
2022-12-23T18:24:59.647Z,98572.31
2022-12-23T18:30:04.941Z,98567.94
2022-12-23T18:35:31.597Z,98562.78
2022-12-23T18:40:34.930Z,98578.25
2022-12-23T18:45:42.022Z,98583.50
2022-12-23T18:50:46.772Z,98567.88
2022-12-23T18:55:50.762Z,98571.28
2022-12-23T19:00:55.501Z,98572.97
2022-12-23T19:06:06.730Z,98576.44
2022-12-23T19:11:14.253Z,98563.31
2022-12-23T19:16:21.617Z,98585.97
2022-12-23T19:21:24.939Z,98592.13
2022-12-23T19:26:28.198Z,98583.41
2022-12-23T19:31:34.121Z,98587.78
2022-12-23T19:36:38.889Z,98599.19
2022-12-23T19:41:42.143Z,98600.91
2022-12-23T19:46:48.007Z,98602.69
2022-12-23T19:51:51.246Z,98620.19
2022-12-23T19:56:54.537Z,98624.50
2022-12-23T20:01:59.355Z,98627.16
2022-12-23T20:07:02.804Z,98632.41
2022-12-23T20:12:06.829Z,98653.47
2022-12-23T20:17:11.469Z,98641.25
2022-12-23T20:22:14.701Z,98634.19
2022-12-23T20:27:24.290Z,98641.19
2022-12-23T20:32:32.565Z,98660.47
2022-12-23T20:37:35.837Z,98660.53
2022-12-23T20:42:39.156Z,98665.91
2022-12-23T20:47:43.872Z,98661.47
2022-12-23T20:52:47.680Z,98665.78
2022-12-23T20:57:51.075Z,98667.63
2022-12-23T21:02:56.051Z,98674.50
2022-12-23T21:07:59.264Z,98681.53
2022-12-23T21:13:03.629Z,98683.25
2022-12-23T21:18:08.384Z,98674.59
2022-12-23T21:23:11.776Z,98685.88
2022-12-23T21:28:15.151Z,98684.13
2022-12-23T21:33:20.092Z,98692.88
2022-12-23T21:38:23.559Z,98702.47
2022-12-23T21:43:27.058Z,98707.72
2022-12-23T21:48:35.051Z,98705.09
2022-12-23T21:53:38.805Z,98711.16
2022-12-23T21:58:42.366Z,98703.38
2022-12-23T22:03:48.810Z,98733.97
2022-12-23T22:08:54.046Z,98706.09
2022-12-23T22:13:57.873Z,98722.63
2022-12-23T22:19:03.357Z,98714.00
2022-12-23T22:24:08.723Z,98711.44
2022-12-23T22:29:12.699Z,98716.59
2022-12-23T22:34:19.399Z,98714.94
2022-12-23T22:39:23.047Z,98724.56
2022-12-23T22:44:26.622Z,98752.47
2022-12-23T22:49:31.310Z,98755.03
2022-12-23T22:54:34.563Z,98760.34
2022-12-23T22:59:38.177Z,98769.91
2022-12-23T23:04:42.881Z,98775.16
2022-12-23T23:09:46.266Z,98789.97
2022-12-23T23:14:55.478Z,98783.84
2022-12-23T23:20:00.170Z,98783.78
2022-12-23T23:25:03.402Z,98781.19
2022-12-23T23:30:07.481Z,98789.94
2022-12-23T23:35:12.471Z,98792.56
2022-12-23T23:40:16.073Z,98789.97
2022-12-23T23:45:19.369Z,98799.59
2022-12-23T23:50:23.978Z,98805.69
2022-12-23T23:55:27.221Z,98799.59
